Time;durP1;ratioP1;P1;durP2;ratioP2;P2;SDS_P1;SDS_P2;PMS_P1;PMS_P2;Temp;Humidity;BMP_temperature;BMP_pressure;BME280_temperature;BME280_humidity;BME280_pressure;Samples;Min_cycle;Max_cycle;Signal;HPM_P1;HPM_P2
2022/09/08 00:00:08;;;;;;;4.20;2.87;;;;;;;;;;5130888;27;20946;-66
2022/09/08 00:02:37;;;;;;;2.10;2.00;;;;;;;;;;5111716;27;20806;-66
2022/09/08 00:05:04;;;;;;;3.40;3.10;;;;;;;;;;5131009;27;20478;-66
2022/09/08 00:07:35;;;;;;;2.40;2.10;;;;;;;;;;5131173;27;20418;-66
2022/09/08 00:10:02;;;;;;;2.40;2.20;;;;;;;;;;5131113;27;20419;-66
2022/09/08 00:12:28;;;;;;;5.67;4.17;;;;;;;;;;5131060;27;20923;-66
2022/09/08 00:14:55;;;;;;;3.53;3.20;;;;;;;;;;5131468;27;20902;-66
2022/09/08 00:17:21;;;;;;;2.70;2.60;;;;;;;;;;5130580;27;20427;-66
2022/09/08 00:19:47;;;;;;;2.97;2.77;;;;;;;;;;5131523;27;20427;-66
2022/09/08 00:22:13;;;;;;;2.30;2.30;;;;;;;;;;5130386;27;20759;-66
2022/09/08 00:24:39;;;;;;;3.90;3.10;;;;;;;;;;5130935;27;20557;-66
2022/09/08 00:27:05;;;;;;;2.77;2.57;;;;;;;;;;5130595;27;20530;-66
2022/09/08 00:29:31;;;;;;;2.73;2.57;;;;;;;;;;5130903;27;20502;-66
2022/09/08 00:31:57;;;;;;;2.70;2.50;;;;;;;;;;5129859;27;20925;-66
2022/09/08 00:34:23;;;;;;;10.17;2.50;;;;;;;;;;5113106;27;20427;-66
2022/09/08 00:36:50;;;;;;;4.40;3.00;;;;;;;;;;5130942;27;20644;-66
2022/09/08 00:39:16;;;;;;;3.03;2.33;;;;;;;;;;5130887;27;20787;-66
2022/09/08 00:41:42;;;;;;;3.50;2.50;;;;;;;;;;5128931;27;20442;-66
2022/09/08 00:44:32;;;;;;;2.80;2.57;;;;;;;;;;5129805;27;20930;-66
2022/09/08 00:46:58;;;;;;;2.67;2.47;;;;;;;;;;5129872;27;20768;-66
2022/09/08 00:49:24;;;;;;;3.33;2.63;;;;;;;;;;5131259;27;20418;-66
2022/09/08 00:51:52;;;;;;;3.27;2.60;;;;;;;;;;5130729;27;20426;-66
2022/09/08 00:54:19;;;;;;;5.83;3.10;;;;;;;;;;5129642;27;20437;-66
2022/09/08 00:56:46;;;;;;;6.33;3.17;;;;;;;;;;5130246;27;20427;-66
2022/09/08 00:59:14;;;;;;;3.33;3.03;;;;;;;;;;5129667;27;20474;-66
2022/09/08 01:01:40;;;;;;;4.90;2.47;;;;;;;;;;5129176;27;21003;-66
2022/09/08 01:04:06;;;;;;;2.63;2.53;;;;;;;;;;5130257;27;20578;-66
2022/09/08 01:12:44;;;;;;;3.47;3.10;;;;;;;;;;5130264;27;20438;-66
2022/09/08 01:15:11;;;;;;;3.60;3.30;;;;;;;;;;5130357;28;20446;-66
2022/09/08 01:17:38;;;;;;;3.07;2.80;;;;;;;;;;5130176;27;20859;-66
2022/09/08 01:20:07;;;;;;;5.90;3.20;;;;;;;;;;5130339;28;20949;-66
2022/09/08 01:22:33;;;;;;;3.33;2.97;;;;;;;;;;5128612;28;20480;-66
2022/09/08 01:24:59;;;;;;;3.00;2.70;;;;;;;;;;5126828;28;20908;-66
2022/09/08 01:27:29;;;;;;;6.17;3.27;;;;;;;;;;5129767;27;20585;-66
2022/09/08 01:30:02;;;;;;;3.00;2.90;;;;;;;;;;5129569;28;20581;-66
2022/09/08 01:32:31;;;;;;;2.63;2.53;;;;;;;;;;5129829;28;20422;-66
2022/09/08 01:34:57;;;;;;;2.73;2.53;;;;;;;;;;5129175;28;20472;-66
2022/09/08 01:37:23;;;;;;;2.60;2.40;;;;;;;;;;5111992;28;20458;-66
2022/09/08 01:39:49;;;;;;;1.97;1.87;;;;;;;;;;5129656;27;20890;-66
2022/09/08 01:42:15;;;;;;;2.87;2.77;;;;;;;;;;5129970;28;20518;-66
2022/09/08 01:44:43;;;;;;;4.20;3.37;;;;;;;;;;5129944;28;20474;-66
2022/09/08 01:47:09;;;;;;;3.33;3.20;;;;;;;;;;5129575;28;20403;-66
2022/09/08 01:49:35;;;;;;;4.70;3.17;;;;;;;;;;5129599;28;20441;-66
2022/09/08 01:52:01;;;;;;;4.37;3.83;;;;;;;;;;5128965;28;20510;-66
2022/09/08 01:54:27;;;;;;;6.83;3.63;;;;;;;;;;5128269;28;20789;-66
2022/09/08 01:56:54;;;;;;;4.43;4.03;;;;;;;;;;5129900;28;20414;-66
2022/09/08 01:59:20;;;;;;;4.50;3.83;;;;;;;;;;5127193;27;20729;-66
2022/09/08 02:01:46;;;;;;;4.10;3.70;;;;;;;;;;5128298;28;20462;-66
2022/09/08 02:04:12;;;;;;;3.20;3.10;;;;;;;;;;5129774;28;20490;-66
2022/09/08 02:06:38;;;;;;;6.43;3.47;;;;;;;;;;5129757;28;20421;-66
2022/09/08 02:09:04;;;;;;;3.20;2.90;;;;;;;;;;5111297;28;20540;-66
2022/09/08 02:11:30;;;;;;;2.93;2.67;;;;;;;;;;5128432;28;20445;-66
2022/09/08 02:13:56;;;;;;;3.83;3.20;;;;;;;;;;5128372;28;20578;-66
2022/09/08 02:16:23;;;;;;;2.43;2.33;;;;;;;;;;5129976;28;20969;-66
2022/09/08 02:18:49;;;;;;;3.57;3.07;;;;;;;;;;5129686;28;21294;-66
2022/09/08 02:21:17;;;;;;;2.13;2.13;;;;;;;;;;5127871;28;20456;-66
2022/09/08 02:23:44;;;;;;;1.77;1.67;;;;;;;;;;5128962;28;20411;-66
2022/09/08 02:26:17;;;;;;;1.50;1.50;;;;;;;;;;5127077;28;20829;-66
2022/09/08 02:28:43;;;;;;;2.83;1.20;;;;;;;;;;5128448;27;20455;-66
2022/09/08 02:31:09;;;;;;;0.70;0.70;;;;;;;;;;5131866;27;20796;-66
2022/09/08 02:33:36;;;;;;;1.00;1.00;;;;;;;;;;5133264;27;20934;-66
2022/09/08 02:36:02;;;;;;;2.03;0.80;;;;;;;;;;5132221;27;20945;-66
2022/09/08 02:38:28;;;;;;;0.90;0.90;;;;;;;;;;5133088;27;20960;-66
2022/09/08 02:40:54;;;;;;;0.60;0.60;;;;;;;;;;5132200;27;20442;-66
2022/09/08 02:43:21;;;;;;;1.17;0.73;;;;;;;;;;5113626;27;20470;-66
2022/09/08 02:45:47;;;;;;;2.33;0.90;;;;;;;;;;5130533;27;20589;-66
2022/09/08 02:48:13;;;;;;;1.13;0.60;;;;;;;;;;5132234;27;20997;-66
2022/09/08 02:50:40;;;;;;;0.50;0.50;;;;;;;;;;5132646;27;20534;-66
2022/09/08 02:53:06;;;;;;;0.60;0.60;;;;;;;;;;5131741;27;20983;-66
2022/09/08 02:55:32;;;;;;;0.63;0.63;;;;;;;;;;5131464;27;20454;-66
2022/09/08 02:57:58;;;;;;;1.07;0.70;;;;;;;;;;5131613;27;20474;-66
2022/09/08 03:00:30;;;;;;;3.03;0.60;;;;;;;;;;5132359;27;20483;-66
2022/09/08 03:02:56;;;;;;;2.23;1.00;;;;;;;;;;5131730;27;21859;-66
2022/09/08 03:05:22;;;;;;;0.63;0.63;;;;;;;;;;5132149;27;20479;-66
2022/09/08 03:07:48;;;;;;;2.13;0.70;;;;;;;;;;5132350;27;20430;-66
2022/09/08 03:10:14;;;;;;;3.87;1.50;;;;;;;;;;5132718;27;20438;-66
2022/09/08 03:12:40;;;;;;;0.50;0.50;;;;;;;;;;5131918;27;20422;-66
2022/09/08 03:15:07;;;;;;;0.43;0.43;;;;;;;;;;5131701;27;20491;-66
2022/09/08 03:17:33;;;;;;;0.50;0.50;;;;;;;;;;5131825;27;20419;-66
2022/09/08 03:19:59;;;;;;;1.30;0.80;;;;;;;;;;5131559;27;20502;-66
2022/09/08 03:22:25;;;;;;;1.73;0.70;;;;;;;;;;5131611;27;20423;-66
2022/09/08 03:24:51;;;;;;;0.80;0.80;;;;;;;;;;5132391;27;21021;-66
2022/09/08 03:27:17;;;;;;;0.60;0.60;;;;;;;;;;5131378;27;20431;-66
2022/09/08 03:29:43;;;;;;;2.57;0.70;;;;;;;;;;5132101;27;20961;-66
2022/09/08 03:32:09;;;;;;;1.10;0.80;;;;;;;;;;5131446;27;20808;-66
2022/09/08 03:34:35;;;;;;;0.87;0.87;;;;;;;;;;5130880;27;20430;-66
2022/09/08 03:37:01;;;;;;;1.37;1.27;;;;;;;;;;5131999;27;20460;-66
2022/09/08 03:39:27;;;;;;;1.07;0.70;;;;;;;;;;5131469;27;20434;-66
2022/09/08 03:41:54;;;;;;;1.00;0.80;;;;;;;;;;5130238;27;20431;-66
2022/09/08 03:44:20;;;;;;;2.50;0.80;;;;;;;;;;5112291;27;20269;-66
2022/09/08 03:46:46;;;;;;;0.50;0.50;;;;;;;;;;5131914;27;20433;-67
2022/09/08 03:49:12;;;;;;;2.97;0.70;;;;;;;;;;5132020;27;20502;-67
2022/09/08 03:51:38;;;;;;;1.10;0.70;;;;;;;;;;5130941;27;20419;-66
2022/09/08 03:56:50;;;;;;;5.07;1.03;;;;;;;;;;5129774;27;20418;-66
2022/09/08 03:59:16;;;;;;;1.50;0.80;;;;;;;;;;5131354;27;20819;-66
2022/09/08 04:01:42;;;;;;;2.53;0.50;;;;;;;;;;5131137;27;20423;-66
2022/09/08 04:04:08;;;;;;;1.63;1.53;;;;;;;;;;5130259;27;20525;-66
2022/09/08 04:06:34;;;;;;;0.70;0.70;;;;;;;;;;5129518;27;20434;-66
2022/09/08 04:09:00;;;;;;;0.70;0.70;;;;;;;;;;5131100;27;20861;-66
2022/09/08 04:11:26;;;;;;;2.00;0.83;;;;;;;;;;5130796;27;20521;-66
2022/09/08 04:13:52;;;;;;;2.63;1.57;;;;;;;;;;5131294;27;21821;-66
2022/09/08 04:16:18;;;;;;;0.60;0.60;;;;;;;;;;5131272;27;20430;-67
2022/09/08 04:18:44;;;;;;;0.60;0.60;;;;;;;;;;5130690;27;20435;-66
2022/09/08 04:21:11;;;;;;;0.47;0.47;;;;;;;;;;5130861;27;20445;-66
2022/09/08 04:23:37;;;;;;;0.77;0.77;;;;;;;;;;5130145;27;20502;-67
2022/09/08 04:26:07;;;;;;;6.83;0.50;;;;;;;;;;5129890;27;20510;-66
2022/09/08 04:28:34;;;;;;;1.90;0.80;;;;;;;;;;5130118;27;20415;-66
2022/09/08 04:31:02;;;;;;;2.37;0.63;;;;;;;;;;5130574;27;20443;-67
2022/09/08 04:33:28;;;;;;;1.40;0.90;;;;;;;;;;5130561;27;20427;-67
2022/09/08 04:35:54;;;;;;;2.87;0.73;;;;;;;;;;5130274;27;20496;-66
2022/09/08 04:38:20;;;;;;;1.60;0.93;;;;;;;;;;5128869;27;20435;-67
2022/09/08 04:40:46;;;;;;;0.70;0.70;;;;;;;;;;5130335;27;20487;-67
2022/09/08 04:43:12;;;;;;;0.90;0.90;;;;;;;;;;5130433;27;20513;-66
2022/09/08 04:45:38;;;;;;;2.23;0.60;;;;;;;;;;5129509;27;20233;-66
2022/09/08 04:48:04;;;;;;;0.70;0.70;;;;;;;;;;5130225;27;20438;-66
2022/09/08 04:50:30;;;;;;;1.57;1.17;;;;;;;;;;5128623;27;20269;-67
2022/09/08 04:52:56;;;;;;;0.80;0.80;;;;;;;;;;5109730;27;20435;-67
2022/09/08 04:55:22;;;;;;;1.27;1.10;;;;;;;;;;5124918;27;20457;-66
2022/09/08 04:57:48;;;;;;;2.97;0.70;;;;;;;;;;5128875;27;20470;-66
2022/09/08 05:00:14;;;;;;;5.20;0.77;;;;;;;;;;5124377;27;20499;-66
2022/09/08 05:02:41;;;;;;;1.40;0.77;;;;;;;;;;5126902;27;20430;-68
2022/09/08 05:05:07;;;;;;;1.70;1.03;;;;;;;;;;5129554;27;20477;-68
2022/09/08 05:07:33;;;;;;;5.20;1.60;;;;;;;;;;5126111;27;20434;-66
2022/09/08 05:10:00;;;;;;;2.60;0.70;;;;;;;;;;5128182;28;20427;-66
2022/09/08 05:12:27;;;;;;;0.70;0.70;;;;;;;;;;5129047;27;20517;-67
2022/09/08 05:14:53;;;;;;;6.73;0.80;;;;;;;;;;5129347;27;20780;-66
2022/09/08 05:17:19;;;;;;;1.47;0.70;;;;;;;;;;5129241;27;20527;-69
2022/09/08 05:19:45;;;;;;;1.10;1.07;;;;;;;;;;5129016;28;20449;-67
2022/09/08 05:22:11;;;;;;;2.00;0.60;;;;;;;;;;5128686;28;21505;-67
2022/09/08 05:24:37;;;;;;;0.90;0.87;;;;;;;;;;5128324;28;20989;-69
2022/09/08 05:27:03;;;;;;;0.73;0.73;;;;;;;;;;5108960;28;20894;-68
2022/09/08 05:29:29;;;;;;;8.97;0.80;;;;;;;;;;5129076;28;20418;-68
2022/09/08 05:31:54;;;;;;;1.37;1.00;;;;;;;;;;5128576;28;20999;-69
2022/09/08 05:34:20;;;;;;;0.80;0.80;;;;;;;;;;5129840;28;20448;-68
2022/09/08 05:36:47;;;;;;;1.77;0.70;;;;;;;;;;5128182;28;20284;-68
2022/09/08 05:39:13;;;;;;;1.07;0.87;;;;;;;;;;5129054;27;20437;-69
2022/09/08 05:41:39;;;;;;;2.23;2.03;;;;;;;;;;5129332;28;20421;-68
2022/09/08 05:44:08;;;;;;;3.50;0.60;;;;;;;;;;5129038;28;20435;-67
2022/09/08 05:46:34;;;;;;;2.30;1.07;;;;;;;;;;5128551;28;20442;-67
2022/09/08 05:49:02;;;;;;;0.90;0.87;;;;;;;;;;5127693;28;20427;-69
2022/09/08 05:51:28;;;;;;;2.17;0.60;;;;;;;;;;5127758;28;20487;-67
2022/09/08 05:53:54;;;;;;;3.90;1.00;;;;;;;;;;5128626;28;20763;-66
2022/09/08 05:56:20;;;;;;;0.83;0.83;;;;;;;;;;5126763;28;20435;-70
2022/09/08 05:58:50;;;;;;;1.40;0.73;;;;;;;;;;5127750;27;20837;-69
2022/09/08 06:01:16;;;;;;;0.83;0.83;;;;;;;;;;5127965;27;20450;-68
2022/09/08 06:03:42;;;;;;;0.70;0.70;;;;;;;;;;5129884;27;20443;-68
2022/09/08 06:06:12;;;;;;;1.63;1.50;;;;;;;;;;5132015;27;21100;-69
2022/09/08 06:08:39;;;;;;;1.00;0.70;;;;;;;;;;5131572;27;20426;-68
2022/09/08 06:11:05;;;;;;;1.20;0.80;;;;;;;;;;5131047;27;20438;-67
2022/09/08 06:13:33;;;;;;;2.40;1.00;;;;;;;;;;5113029;27;20422;-67
2022/09/08 06:16:07;;;;;;;2.40;1.13;;;;;;;;;;5132131;27;20547;-68
2022/09/08 06:18:33;;;;;;;0.77;0.77;;;;;;;;;;5130876;27;20418;-67
2022/09/08 06:21:04;;;;;;;0.80;0.80;;;;;;;;;;5132013;27;20470;-68
2022/09/08 06:23:29;;;;;;;1.13;0.77;;;;;;;;;;5132433;27;20986;-70
2022/09/08 06:25:55;;;;;;;1.23;1.23;;;;;;;;;;5132598;27;20591;-69
2022/09/08 06:28:36;;;;;;;0.87;0.87;;;;;;;;;;5130525;27;21023;-70
2022/09/08 06:31:07;;;;;;;0.87;0.87;;;;;;;;;;5132179;27;20418;-68
2022/09/08 06:33:37;;;;;;;3.03;0.80;;;;;;;;;;5130033;27;21022;-67
2022/09/08 06:36:09;;;;;;;0.90;0.90;;;;;;;;;;5130619;27;20435;-67
2022/09/08 06:38:41;;;;;;;2.40;0.80;;;;;;;;;;5131785;27;20892;-66
2022/09/08 06:41:12;;;;;;;0.80;0.80;;;;;;;;;;5131840;27;20427;-67
2022/09/08 06:43:38;;;;;;;1.07;0.93;;;;;;;;;;5130421;27;20466;-68
2022/09/08 06:46:06;;;;;;;3.37;1.03;;;;;;;;;;5131348;27;21157;-68
2022/09/08 06:48:32;;;;;;;5.23;0.90;;;;;;;;;;5132169;27;20184;-68
2022/09/08 06:51:17;;;;;;;0.80;0.80;;;;;;;;;;5132479;27;20439;-68
2022/09/08 06:54:00;;;;;;;2.53;0.93;;;;;;;;;;5131468;27;20288;-69
2022/09/08 06:56:37;;;;;;;0.97;0.80;;;;;;;;;;5130179;27;20431;-68
2022/09/08 06:59:07;;;;;;;3.70;0.80;;;;;;;;;;5131340;27;20466;-67
2022/09/08 07:01:39;;;;;;;0.83;0.83;;;;;;;;;;5132527;27;20790;-68
2022/09/08 07:04:13;;;;;;;1.10;1.00;;;;;;;;;;5113522;27;20525;-68
2022/09/08 07:06:54;;;;;;;0.93;0.93;;;;;;;;;;5132021;27;20453;-67
2022/09/08 07:09:20;;;;;;;4.53;0.83;;;;;;;;;;5132829;27;20877;-67
2022/09/08 07:11:58;;;;;;;1.23;0.73;;;;;;;;;;5113129;27;20427;-67
2022/09/08 07:14:34;;;;;;;1.70;0.80;;;;;;;;;;5132429;27;20784;-69
2022/09/08 07:17:06;;;;;;;1.07;0.97;;;;;;;;;;5131239;27;20415;-67
2022/09/08 07:19:51;;;;;;;6.50;1.37;;;;;;;;;;5131689;27;20758;-68
2022/09/08 07:22:21;;;;;;;0.80;0.80;;;;;;;;;;5130879;27;20435;-67
2022/09/08 07:24:48;;;;;;;1.63;1.33;;;;;;;;;;5132246;27;20462;-69
2022/09/08 07:27:15;;;;;;;2.13;1.47;;;;;;;;;;5132487;27;20957;-69
2022/09/08 07:29:47;;;;;;;1.07;1.00;;;;;;;;;;5130995;27;21036;-67
2022/09/08 07:32:20;;;;;;;1.33;1.03;;;;;;;;;;5131358;27;20505;-69
2022/09/08 07:34:52;;;;;;;4.20;1.00;;;;;;;;;;5113116;27;20522;-67
2022/09/08 07:37:22;;;;;;;1.03;1.03;;;;;;;;;;5130560;27;20427;-67
2022/09/08 07:39:55;;;;;;;6.67;1.23;;;;;;;;;;5130866;27;20534;-67
2022/09/08 07:42:21;;;;;;;2.83;1.07;;;;;;;;;;5131872;27;20427;-67
2022/09/08 07:44:54;;;;;;;3.10;1.13;;;;;;;;;;5130060;27;20467;-69
2022/09/08 07:47:34;;;;;;;1.30;1.13;;;;;;;;;;5131357;27;20467;-67
2022/09/08 07:50:07;;;;;;;1.00;1.00;;;;;;;;;;5130857;27;20473;-67
2022/09/08 07:52:41;;;;;;;6.47;1.07;;;;;;;;;;5131004;27;20479;-68
2022/09/08 07:55:13;;;;;;;5.40;0.80;;;;;;;;;;5131941;27;20419;-67
2022/09/08 07:58:05;;;;;;;4.37;1.03;;;;;;;;;;5131417;27;20478;-69
2022/09/08 08:00:44;;;;;;;0.57;0.57;;;;;;;;;;5088852;27;20430;-67
2022/09/08 08:03:10;;;;;;;12.30;0.70;;;;;;;;;;5130321;27;20431;-67
2022/09/08 08:05:42;;;;;;;3.47;2.20;;;;;;;;;;5112673;27;20531;-67
2022/09/08 08:08:11;;;;;;;0.70;0.70;;;;;;;;;;5113205;27;20430;-67
2022/09/08 08:10:43;;;;;;;0.90;0.90;;;;;;;;;;5131751;27;20427;-67
2022/09/08 08:13:32;;;;;;;1.73;0.80;;;;;;;;;;5131538;27;20498;-66
2022/09/08 08:16:01;;;;;;;5.87;0.70;;;;;;;;;;5117991;27;20525;-66
2022/09/08 08:18:49;;;;;;;0.60;0.50;;;;;;;;;;5131631;27;20468;-67
2022/09/08 08:21:17;;;;;;;1.70;0.67;;;;;;;;;;5131237;27;20419;-67
2022/09/08 08:23:52;;;;;;;3.07;0.70;;;;;;;;;;5131193;27;20419;-67
2022/09/08 08:26:35;;;;;;;1.40;1.30;;;;;;;;;;5130567;27;20530;-68
2022/09/08 08:29:07;;;;;;;4.10;0.90;;;;;;;;;;5130290;27;20434;-69
2022/09/08 08:31:41;;;;;;;2.53;0.97;;;;;;;;;;5127158;27;20454;-68
2022/09/08 08:34:11;;;;;;;0.60;0.60;;;;;;;;;;5130681;27;20426;-67
2022/09/08 08:36:39;;;;;;;4.70;1.03;;;;;;;;;;5129645;27;20441;-68
2022/09/08 08:39:19;;;;;;;10.60;5.23;;;;;;;;;;5131283;27;20506;-67
2022/09/08 08:41:48;;;;;;;0.70;0.60;;;;;;;;;;5129170;27;20419;-67
2022/09/08 08:44:26;;;;;;;0.60;0.60;;;;;;;;;;5130143;27;20427;-67
2022/09/08 08:47:11;;;;;;;5.97;0.50;;;;;;;;;;5129364;27;20447;-67
2022/09/08 08:49:59;;;;;;;1.90;0.60;;;;;;;;;;5130384;27;20434;-68
2022/09/08 08:52:38;;;;;;;1.03;1.03;;;;;;;;;;5130099;27;20449;-67
2022/09/08 08:55:25;;;;;;;0.93;0.93;;;;;;;;;;5130736;27;20407;-66
2022/09/08 08:58:00;;;;;;;0.60;0.60;;;;;;;;;;5076352;27;20470;-61
2022/09/08 09:00:37;;;;;;;0.50;0.50;;;;;;;;;;5129410;27;20517;-62
2022/09/08 09:03:08;;;;;;;0.60;0.60;;;;;;;;;;5128181;27;20464;-61
2022/09/08 09:05:53;;;;;;;0.60;0.60;;;;;;;;;;5129699;27;20513;-67
2022/09/08 09:08:28;;;;;;;1.47;0.80;;;;;;;;;;5129727;27;20414;-69
2022/09/08 09:11:19;;;;;;;0.50;0.50;;;;;;;;;;5110499;28;20821;-66
2022/09/08 09:14:13;;;;;;;0.87;0.70;;;;;;;;;;5109923;27;20423;-68
2022/09/08 09:16:56;;;;;;;3.13;0.70;;;;;;;;;;5130094;27;20423;-68
2022/09/08 09:19:28;;;;;;;0.87;0.50;;;;;;;;;;5128184;28;20796;-67
2022/09/08 09:22:00;;;;;;;0.70;0.70;;;;;;;;;;5130034;28;20437;-67
2022/09/08 09:24:32;;;;;;;0.50;0.50;;;;;;;;;;5130523;28;20473;-69
2022/09/08 09:26:58;;;;;;;0.63;0.50;;;;;;;;;;5129212;28;20445;-68
2022/09/08 09:29:25;;;;;;;2.63;0.60;;;;;;;;;;5129550;28;20425;-67
2022/09/08 09:32:04;;;;;;;0.77;0.77;;;;;;;;;;5130096;28;20435;-69
2022/09/08 09:34:49;;;;;;;0.83;0.67;;;;;;;;;;5129561;28;20473;-69
2022/09/08 09:37:26;;;;;;;0.57;0.50;;;;;;;;;;5129933;28;20926;-68
2022/09/08 09:40:11;;;;;;;7.23;0.50;;;;;;;;;;5131938;27;20521;-69
2022/09/08 09:43:12;;;;;;;3.20;0.90;;;;;;;;;;5133852;27;20802;-69
2022/09/08 09:45:50;;;;;;;1.43;0.80;;;;;;;;;;5028551;28;20485;-68
2022/09/08 09:48:19;;;;;;;1.07;0.73;;;;;;;;;;5120627;27;20430;-67
2022/09/08 09:50:53;;;;;;;1.57;0.70;;;;;;;;;;5134344;27;20914;-69
2022/09/08 09:53:37;;;;;;;0.70;0.70;;;;;;;;;;5133275;27;20914;-69
2022/09/08 09:56:12;;;;;;;0.53;0.53;;;;;;;;;;5134221;27;20421;-68
2022/09/08 09:58:44;;;;;;;0.67;0.67;;;;;;;;;;5133395;27;20465;-69
2022/09/08 10:01:22;;;;;;;0.63;0.63;;;;;;;;;;5133175;27;20438;-69
2022/09/08 10:03:51;;;;;;;0.70;0.70;;;;;;;;;;5133645;27;21031;-68
2022/09/08 10:06:25;;;;;;;2.77;0.80;;;;;;;;;;5133655;27;20478;-67
2022/09/08 10:08:51;;;;;;;0.63;0.63;;;;;;;;;;5133870;27;20826;-68
2022/09/08 10:11:20;;;;;;;3.00;0.90;;;;;;;;;;5133396;27;20456;-68
2022/09/08 10:13:55;;;;;;;6.90;6.23;;;;;;;;;;5133309;27;20910;-67
2022/09/08 10:16:33;;;;;;;0.67;0.67;;;;;;;;;;5133118;27;20448;-69
2022/09/08 10:19:25;;;;;;;3.80;1.03;;;;;;;;;;5133938;27;20414;-67
2022/09/08 10:22:00;;;;;;;1.00;0.63;;;;;;;;;;5114358;27;20818;-67
2022/09/08 10:24:47;;;;;;;1.70;0.60;;;;;;;;;;5134020;27;20433;-69
2022/09/08 10:27:43;;;;;;;4.27;0.90;;;;;;;;;;5115077;27;20433;-69
2022/09/08 10:30:12;;;;;;;4.23;1.60;;;;;;;;;;5115519;27;20434;-67
2022/09/08 10:32:57;;;;;;;2.77;1.10;;;;;;;;;;5133022;27;20435;-69
2022/09/08 10:35:32;;;;;;;1.20;1.10;;;;;;;;;;5132973;27;20518;-69
2022/09/08 10:38:10;;;;;;;9.53;1.00;;;;;;;;;;5133459;27;20466;-66
2022/09/08 10:40:55;;;;;;;3.13;1.07;;;;;;;;;;5132641;27;20937;-69
2022/09/08 10:43:27;;;;;;;3.00;1.13;;;;;;;;;;5112822;27;20461;-68
2022/09/08 10:45:53;;;;;;;3.60;1.00;;;;;;;;;;5132953;27;20486;-66
2022/09/08 10:48:38;;;;;;;1.80;1.00;;;;;;;;;;5133709;27;20775;-67
2022/09/08 10:51:27;;;;;;;2.20;1.10;;;;;;;;;;5131270;27;20196;-67
2022/09/08 10:53:53;;;;;;;2.77;0.90;;;;;;;;;;5131813;27;20442;-68
2022/09/08 10:56:28;;;;;;;2.23;0.80;;;;;;;;;;5132524;27;20427;-67
2022/09/08 10:59:05;;;;;;;0.60;0.60;;;;;;;;;;5132420;27;20601;-67
2022/09/08 11:01:39;;;;;;;1.33;0.83;;;;;;;;;;5132352;27;20422;-67
2022/09/08 11:04:24;;;;;;;9.10;0.83;;;;;;;;;;5132199;27;20414;-67
2022/09/08 11:07:09;;;;;;;2.00;0.83;;;;;;;;;;5131593;27;20431;-68
2022/09/08 11:09:44;;;;;;;3.17;1.10;;;;;;;;;;5131420;27;20423;-68
2022/09/08 11:12:29;;;;;;;2.00;1.00;;;;;;;;;;5132286;27;20430;-69
2022/09/08 11:15:13;;;;;;;0.90;0.83;;;;;;;;;;5132243;27;20468;-68
2022/09/08 11:17:47;;;;;;;3.63;0.63;;;;;;;;;;5132505;27;20418;-68
2022/09/08 11:20:13;;;;;;;1.43;0.70;;;;;;;;;;5132134;27;20449;-68
2022/09/08 11:22:39;;;;;;;2.40;0.87;;;;;;;;;;5131319;27;20419;-67
2022/09/08 11:25:16;;;;;;;1.50;0.80;;;;;;;;;;5131769;27;20485;-66
2022/09/08 11:27:57;;;;;;;1.73;0.90;;;;;;;;;;5130303;27;20185;-69
2022/09/08 11:30:27;;;;;;;3.53;1.50;;;;;;;;;;5130446;27;20443;-69
2022/09/08 11:32:53;;;;;;;1.57;0.70;;;;;;;;;;5131398;27;20946;-69
2022/09/08 11:35:22;;;;;;;1.40;1.30;;;;;;;;;;5131021;27;20527;-69
2022/09/08 11:37:57;;;;;;;0.80;0.57;;;;;;;;;;5129689;27;20185;-69
2022/09/08 11:40:42;;;;;;;3.37;0.60;;;;;;;;;;5130987;27;20925;-69
2022/09/08 11:43:17;;;;;;;3.60;0.77;;;;;;;;;;5131340;27;20430;-69
2022/09/08 11:45:54;;;;;;;1.43;0.70;;;;;;;;;;5131553;27;20477;-68
2022/09/08 11:48:26;;;;;;;3.50;0.70;;;;;;;;;;5129567;27;20430;-69
2022/09/08 11:50:52;;;;;;;3.03;0.80;;;;;;;;;;5130633;27;20438;-69
2022/09/08 11:53:38;;;;;;;1.27;1.00;;;;;;;;;;5131612;27;20415;-67
2022/09/08 11:56:04;;;;;;;2.83;0.80;;;;;;;;;;5130111;27;20513;-68
2022/09/08 11:58:42;;;;;;;1.00;0.67;;;;;;;;;;5130703;27;20557;-68
2022/09/08 12:01:08;;;;;;;1.27;0.60;;;;;;;;;;5130173;27;20473;-69
2022/09/08 12:03:52;;;;;;;9.10;1.57;;;;;;;;;;5131266;27;20446;-67
2022/09/08 12:06:35;;;;;;;1.20;0.60;;;;;;;;;;5128230;27;20527;-66
2022/09/08 12:09:01;;;;;;;1.73;0.70;;;;;;;;;;5129909;27;20430;-67
2022/09/08 12:11:47;;;;;;;2.73;0.80;;;;;;;;;;5130056;27;20493;-67
2022/09/08 12:14:39;;;;;;;2.20;0.87;;;;;;;;;;5131219;27;20912;-65
2022/09/08 12:17:21;;;;;;;5.50;0.70;;;;;;;;;;5096840;27;20438;-69
2022/09/08 12:19:56;;;;;;;2.90;0.87;;;;;;;;;;5131244;27;20430;-67
2022/09/08 12:22:44;;;;;;;1.30;0.70;;;;;;;;;;5130134;27;20929;-68
2022/09/08 12:25:16;;;;;;;1.17;1.00;;;;;;;;;;5129870;27;20482;-67
2022/09/08 12:27:54;;;;;;;3.10;0.60;;;;;;;;;;5130731;27;20434;-68
2022/09/08 12:30:21;;;;;;;0.70;0.63;;;;;;;;;;5130730;27;20487;-67
2022/09/08 12:33:06;;;;;;;4.47;0.63;;;;;;;;;;5129512;27;20802;-68
2022/09/08 12:35:38;;;;;;;4.97;1.07;;;;;;;;;;5129803;27;20861;-69
2022/09/08 12:38:04;;;;;;;2.60;1.03;;;;;;;;;;5129999;27;20445;-67
2022/09/08 12:40:50;;;;;;;1.83;0.70;;;;;;;;;;5130835;27;20946;-69
2022/09/08 12:43:16;;;;;;;0.63;0.63;;;;;;;;;;5130431;27;20188;-67
2022/09/08 12:46:01;;;;;;;1.13;0.57;;;;;;;;;;5130199;27;20478;-69
2022/09/08 12:48:37;;;;;;;1.90;0.70;;;;;;;;;;5130833;27;20220;-69
2022/09/08 12:51:21;;;;;;;0.90;0.90;;;;;;;;;;5130210;27;20426;-69
2022/09/08 12:54:06;;;;;;;0.60;0.60;;;;;;;;;;5130161;27;20442;-68
2022/09/08 12:56:48;;;;;;;1.60;1.00;;;;;;;;;;5130473;27;20430;-68
2022/09/08 12:59:33;;;;;;;2.83;1.10;;;;;;;;;;5130309;27;20466;-67
2022/09/08 13:02:19;;;;;;;5.20;1.17;;;;;;;;;;5127892;27;20473;-68
2022/09/08 13:04:59;;;;;;;2.43;0.80;;;;;;;;;;5112731;27;20879;-66
2022/09/08 13:07:40;;;;;;;0.97;0.83;;;;;;;;;;5129402;27;20433;-68
2022/09/08 13:10:19;;;;;;;2.27;0.70;;;;;;;;;;5130503;27;20423;-67
2022/09/08 13:13:05;;;;;;;4.27;1.27;;;;;;;;;;5129891;27;20480;-68
2022/09/08 13:15:34;;;;;;;4.57;0.60;;;;;;;;;;5127539;27;20444;-67
2022/09/08 13:18:09;;;;;;;2.43;0.70;;;;;;;;;;5130360;27;20570;-67
2022/09/08 13:20:40;;;;;;;1.70;0.93;;;;;;;;;;5111462;28;20513;-67
2022/09/08 13:23:09;;;;;;;2.30;0.70;;;;;;;;;;5130168;28;20476;-67
2022/09/08 13:25:53;;;;;;;0.63;0.63;;;;;;;;;;5129167;28;20996;-69
2022/09/08 13:28:33;;;;;;;2.20;1.70;;;;;;;;;;5130282;28;20962;-68
2022/09/08 13:31:18;;;;;;;4.27;1.20;;;;;;;;;;5130165;28;20419;-68
2022/09/08 13:33:50;;;;;;;3.13;0.77;;;;;;;;;;5129920;28;20550;-69
2022/09/08 13:36:22;;;;;;;1.30;0.70;;;;;;;;;;5129769;28;20969;-68
2022/09/08 13:38:51;;;;;;;3.27;0.80;;;;;;;;;;5130093;28;20430;-67
2022/09/08 13:41:30;;;;;;;1.80;0.70;;;;;;;;;;5129355;28;20438;-69
2022/09/08 13:44:02;;;;;;;12.73;0.97;;;;;;;;;;5130109;28;20423;-67
2022/09/08 13:46:28;;;;;;;2.00;0.60;;;;;;;;;;5129773;28;20482;-68
2022/09/08 13:49:12;;;;;;;1.90;1.13;;;;;;;;;;5130522;27;20419;-69
2022/09/08 13:51:42;;;;;;;5.73;1.33;;;;;;;;;;5127144;28;20469;-68
2022/09/08 13:54:17;;;;;;;0.50;0.50;;;;;;;;;;5111621;28;20426;-68
2022/09/08 13:57:01;;;;;;;0.70;0.70;;;;;;;;;;5129200;28;20445;-66
2022/09/08 13:59:30;;;;;;;4.60;1.17;;;;;;;;;;5129380;28;20469;-66
2022/09/08 14:01:56;;;;;;;1.53;1.00;;;;;;;;;;5128258;28;20419;-67
2022/09/08 14:04:44;;;;;;;2.30;1.00;;;;;;;;;;5130090;28;20427;-68
2022/09/08 14:07:20;;;;;;;2.20;0.63;;;;;;;;;;5128714;28;20466;-67
2022/09/08 14:10:06;;;;;;;1.03;0.73;;;;;;;;;;5130089;28;20489;-67
2022/09/08 14:12:32;;;;;;;2.43;0.90;;;;;;;;;;5129492;28;20430;-67
2022/09/08 14:15:10;;;;;;;3.00;0.70;;;;;;;;;;5129386;28;20850;-66
2022/09/08 14:17:55;;;;;;;0.80;0.77;;;;;;;;;;5130004;28;20571;-67
2022/09/08 14:20:37;;;;;;;1.13;0.50;;;;;;;;;;5129748;28;20414;-69
2022/09/08 14:23:18;;;;;;;4.47;1.37;;;;;;;;;;5129225;28;20430;-66
2022/09/08 14:25:45;;;;;;;0.80;0.80;;;;;;;;;;5113017;27;20478;-67
2022/09/08 14:28:16;;;;;;;1.13;0.97;;;;;;;;;;5115359;27;20419;-67
2022/09/08 14:31:01;;;;;;;3.50;0.70;;;;;;;;;;5133245;27;20434;-67
2022/09/08 14:33:30;;;;;;;2.67;0.90;;;;;;;;;;5132211;27;20434;-67
2022/09/08 14:36:13;;;;;;;2.60;1.90;;;;;;;;;;5132077;27;20449;-66
2022/09/08 14:38:58;;;;;;;4.53;1.10;;;;;;;;;;5133547;27;20450;-67
2022/09/08 14:41:24;;;;;;;2.67;0.60;;;;;;;;;;5129411;27;20435;-66
2022/09/08 14:43:58;;;;;;;1.07;0.97;;;;;;;;;;5133027;27;20430;-67
2022/09/08 14:46:31;;;;;;;1.20;0.50;;;;;;;;;;5133088;27;20213;-67
2022/09/08 14:48:59;;;;;;;7.57;1.50;;;;;;;;;;5132575;27;20915;-68
2022/09/08 14:51:48;;;;;;;0.67;0.67;;;;;;;;;;5131040;27;20411;-66
2022/09/08 14:54:22;;;;;;;6.53;1.10;;;;;;;;;;5080290;27;20518;-68
2022/09/08 14:57:04;;;;;;;8.07;1.27;;;;;;;;;;5133020;27;20422;-67
2022/09/08 14:59:31;;;;;;;6.43;1.10;;;;;;;;;;5132287;27;20485;-67
2022/09/08 15:02:12;;;;;;;0.50;0.50;;;;;;;;;;5129930;27;20430;-61
2022/09/08 15:04:41;;;;;;;0.70;0.70;;;;;;;;;;5131762;27;20434;-68
2022/09/08 15:07:08;;;;;;;4.63;0.80;;;;;;;;;;5131459;27;20427;-67
2022/09/08 15:09:33;;;;;;;0.80;0.80;;;;;;;;;;5133055;27;20422;-66
2022/09/08 15:12:12;;;;;;;2.20;0.60;;;;;;;;;;5132578;27;20426;-66
2022/09/08 15:14:58;;;;;;;0.80;0.60;;;;;;;;;;5131184;27;20559;-66
2022/09/08 15:17:33;;;;;;;4.53;0.70;;;;;;;;;;5132280;27;20433;-66
2022/09/08 15:20:05;;;;;;;2.37;0.67;;;;;;;;;;5129699;27;20438;-66